Abbott, Arkansas
Current Conditions -  °F | °C
As of 11:15 AM on Sunday 21 Dec 2014 (Local Time) from KRKR Reporting Station
Overcast Overcast  
Wind Chill: 44°   Ceiling: 4800
Heat Index: 49°   Visibility: 10mi
Dew Point: 38°   Wind: 13mph
Humidity: 66%   Direction: 170°S
Pressure: 30.09"   Gusts: 18mph
Location:  35.0213°N, 94.2023°W
Report Text: KRKR 211715Z AUTO 17011G16KT 10SM OVC048 09/03 A3009 RMK AO2 T00930033
Loading
Personal Weather Stations






























Interactive Weather Map New forecast layout! Learn more

10-Day Weather Forecast

Advertisements
Track Severe Weather on mobile